SUR4101 SAZR-SACO
Flight info
| Callsign | SUR4101 |
|---|---|
| Flight time | 1h 17m |
| Altitude | 25000 |
| Route | XIXOS2G XIXOS DCT GPI UW62 LYE UW15 SIMES SIMES1Q |
| Aircraft | DH8D/M-SDE2E3FGRY/H |
Departure
| Time | 2026-04-25 00:20 |
|---|---|
| Airport | Santa Rosa Airport (SAZR) |
Arrival
| Time | 2026-04-25 01:37 |
|---|---|
| Airport | Ingeniero Aeronáutico Ambrosio L.V. Taravella International Airport (SACO) |
| Time | Latitude | Longitude | Altitude | Speed | Heading |
|---|---|---|---|---|---|
| 2026-04-24 23:56 | -36.59164 | -64.27895 | 630 ft | 0 kts | 309° |
| 2026-04-25 00:08 | -36.59164 | -64.27894 | 630 ft | 0 kts | 308° |
| 2026-04-25 00:08 | -36.59168 | -64.27882 | 630 ft | 2 kts | 284° |
| 2026-04-25 00:08 | -36.59172 | -64.27864 | 630 ft | 2 kts | 287° |
| 2026-04-25 00:08 | -36.59175 | -64.27853 | 630 ft | 0 kts | 310° |
| 2026-04-25 00:09 | -36.59181 | -64.27850 | 629 ft | 0 kts | 7° |
| 2026-04-25 00:09 | -36.59186 | -64.27853 | 629 ft | 0 kts | 57° |
| 2026-04-25 00:09 | -36.59188 | -64.27861 | 629 ft | 1 kts | 79° |
| 2026-04-25 00:09 | -36.59188 | -64.27862 | 629 ft | 0 kts | 79° |
| 2026-04-25 00:14 | -36.59188 | -64.27861 | 629 ft | 0 kts | 79° |
| 2026-04-25 00:14 | -36.59187 | -64.27855 | 629 ft | 1 kts | 76° |
| 2026-04-25 00:14 | -36.59184 | -64.27842 | 630 ft | 1 kts | 72° |
| 2026-04-25 00:15 | -36.59170 | -64.27792 | 629 ft | 8 kts | 69° |
| 2026-04-25 00:15 | -36.59146 | -64.27721 | 627 ft | 9 kts | 66° |
| 2026-04-25 00:15 | -36.59105 | -64.27649 | 626 ft | 10 kts | 36° |
| 2026-04-25 00:15 | -36.59039 | -64.27615 | 626 ft | 9 kts | 14° |
| 2026-04-25 00:16 | -36.58978 | -64.27598 | 627 ft | 8 kts | 12° |
| 2026-04-25 00:16 | -36.58920 | -64.27584 | 627 ft | 8 kts | 10° |
| 2026-04-25 00:16 | -36.58850 | -64.27567 | 627 ft | 12 kts | 11° |
| 2026-04-25 00:16 | -36.58751 | -64.27542 | 627 ft | 16 kts | 11° |
| 2026-04-25 00:17 | -36.58638 | -64.27514 | 627 ft | 16 kts | 11° |
| 2026-04-25 00:17 | -36.58527 | -64.27487 | 627 ft | 16 kts | 10° |
| 2026-04-25 00:17 | -36.58423 | -64.27462 | 629 ft | 14 kts | 11° |
| 2026-04-25 00:17 | -36.58329 | -64.27437 | 630 ft | 13 kts | 12° |
| 2026-04-25 00:18 | -36.58234 | -64.27414 | 630 ft | 14 kts | 8° |
| 2026-04-25 00:18 | -36.58136 | -64.27393 | 630 ft | 14 kts | 10° |
| 2026-04-25 00:18 | -36.58042 | -64.27371 | 632 ft | 13 kts | 12° |
| 2026-04-25 00:18 | -36.57957 | -64.27348 | 634 ft | 11 kts | 11° |
| 2026-04-25 00:19 | -36.57879 | -64.27333 | 635 ft | 10 kts | 359° |
| 2026-04-25 00:19 | -36.57817 | -64.27347 | 636 ft | 7 kts | 34° |
| 2026-04-25 00:19 | -36.57824 | -64.27315 | 636 ft | 1 kts | 189° |
| 2026-04-25 00:19 | -36.57825 | -64.27315 | 636 ft | 0 kts | 189° |
| 2026-04-25 00:20 | -36.58004 | -64.27361 | 633 ft | 73 kts | 190° |
| 2026-04-25 00:20 | -36.58798 | -64.27560 | 633 ft | 149 kts | 190° |
| 2026-04-25 00:20 | -36.59907 | -64.27801 | 1058 ft | 168 kts | 186° |
| 2026-04-25 00:20 | -36.61004 | -64.28020 | 2030 ft | 159 kts | 188° |
| 2026-04-25 00:21 | -36.62062 | -64.27763 | 2530 ft | 166 kts | 141° |
| 2026-04-25 00:21 | -36.62729 | -64.26580 | 3084 ft | 169 kts | 120° |
| 2026-04-25 00:21 | -36.63271 | -64.25296 | 3635 ft | 174 kts | 120° |
| 2026-04-25 00:21 | -36.63837 | -64.23958 | 4185 ft | 178 kts | 120° |
| 2026-04-25 00:22 | -36.64414 | -64.22583 | 4740 ft | 182 kts | 120° |
| 2026-04-25 00:22 | -36.64998 | -64.21188 | 5297 ft | 186 kts | 120° |
| 2026-04-25 00:22 | -36.65598 | -64.19749 | 5847 ft | 190 kts | 120° |
| 2026-04-25 00:22 | -36.66210 | -64.18280 | 6413 ft | 193 kts | 119° |
| 2026-04-25 00:23 | -36.66824 | -64.16803 | 6953 ft | 197 kts | 120° |
| 2026-04-25 00:23 | -36.67265 | -64.15192 | 7457 ft | 202 kts | 90° |
| 2026-04-25 00:23 | -36.66756 | -64.13612 | 7892 ft | 201 kts | 39° |
| 2026-04-25 00:23 | -36.65528 | -64.12897 | 8383 ft | 195 kts | 8° |
| 2026-04-25 00:24 | -36.64206 | -64.12551 | 8936 ft | 196 kts | 7° |
| 2026-04-25 00:24 | -36.62888 | -64.12218 | 9470 ft | 197 kts | 6° |
| 2026-04-25 00:24 | -36.61538 | -64.11883 | 10018 ft | 198 kts | 5° |
| 2026-04-25 00:24 | -36.60169 | -64.11549 | 10515 ft | 201 kts | 5° |
| 2026-04-25 00:25 | -36.58709 | -64.11204 | 10705 ft | 222 kts | 5° |
| 2026-04-25 00:25 | -36.57188 | -64.10844 | 11190 ft | 227 kts | 5° |
| 2026-04-25 00:25 | -36.55638 | -64.10477 | 11718 ft | 229 kts | 4° |
| 2026-04-25 00:25 | -36.54065 | -64.10105 | 12241 ft | 230 kts | 4° |
| 2026-04-25 00:26 | -36.52506 | -64.09737 | 12737 ft | 232 kts | 4° |
| 2026-04-25 00:26 | -36.50903 | -64.09360 | 13236 ft | 234 kts | 3° |
| 2026-04-25 00:26 | -36.49306 | -64.08984 | 13734 ft | 235 kts | 3° |
| 2026-04-25 00:26 | -36.47718 | -64.08612 | 14182 ft | 237 kts | 2° |
| 2026-04-25 00:27 | -36.46093 | -64.08231 | 14668 ft | 237 kts | 2° |
| 2026-04-25 00:27 | -36.44467 | -64.07851 | 15106 ft | 239 kts | 2° |
| 2026-04-25 00:27 | -36.42831 | -64.07468 | 15544 ft | 240 kts | 2° |
| 2026-04-25 00:27 | -36.41183 | -64.07082 | 15992 ft | 240 kts | 2° |
| 2026-04-25 00:28 | -36.39526 | -64.06695 | 16402 ft | 242 kts | 1° |
| 2026-04-25 00:28 | -36.37872 | -64.06308 | 16815 ft | 245 kts | 1° |
| 2026-04-25 00:28 | -36.36200 | -64.05918 | 17214 ft | 246 kts | 1° |
| 2026-04-25 00:28 | -36.34519 | -64.05527 | 17586 ft | 248 kts | 1° |
| 2026-04-25 00:29 | -36.32823 | -64.05131 | 17970 ft | 249 kts | 1° |
| 2026-04-25 00:29 | -36.31119 | -64.04733 | 18368 ft | 249 kts | 1° |
| 2026-04-25 00:29 | -36.29412 | -64.04334 | 18749 ft | 250 kts | 1° |
| 2026-04-25 00:29 | -36.27692 | -64.03934 | 19091 ft | 252 kts | 1° |
| 2026-04-25 00:30 | -36.25964 | -64.03532 | 19416 ft | 253 kts | 1° |
| 2026-04-25 00:30 | -36.24239 | -64.03130 | 19781 ft | 254 kts | 1° |
| 2026-04-25 00:30 | -36.22496 | -64.02724 | 20123 ft | 255 kts | 1° |
| 2026-04-25 00:30 | -36.20751 | -64.02320 | 20376 ft | 258 kts | 1° |
| 2026-04-25 00:31 | -36.18983 | -64.01908 | 20683 ft | 259 kts | 1° |
| 2026-04-25 00:31 | -36.17210 | -64.01496 | 20982 ft | 261 kts | 1° |
| 2026-04-25 00:31 | -36.15416 | -64.01080 | 21250 ft | 262 kts | 1° |
| 2026-04-25 00:31 | -36.13615 | -64.00650 | 21512 ft | 266 kts | 4° |
| 2026-04-25 00:32 | -36.11835 | -63.99882 | 21758 ft | 275 kts | 15° |
| 2026-04-25 00:32 | -36.10084 | -63.98898 | 21992 ft | 278 kts | 16° |
| 2026-04-25 00:32 | -36.08330 | -63.97902 | 22261 ft | 279 kts | 16° |
| 2026-04-25 00:32 | -36.06569 | -63.96907 | 22564 ft | 277 kts | 15° |
| 2026-04-25 00:33 | -36.04799 | -63.95911 | 22746 ft | 279 kts | 16° |
| 2026-04-25 00:33 | -36.03035 | -63.94922 | 22974 ft | 281 kts | 16° |
| 2026-04-25 00:33 | -36.01257 | -63.93927 | 23206 ft | 281 kts | 15° |
| 2026-04-25 00:33 | -35.99471 | -63.92930 | 23413 ft | 282 kts | 15° |
| 2026-04-25 00:34 | -35.97687 | -63.91936 | 23660 ft | 281 kts | 15° |
| 2026-04-25 00:34 | -35.95895 | -63.90939 | 23782 ft | 284 kts | 15° |
| 2026-04-25 00:34 | -35.94104 | -63.89942 | 24031 ft | 283 kts | 15° |
| 2026-04-25 00:34 | -35.92292 | -63.88937 | 24165 ft | 285 kts | 15° |
| 2026-04-25 00:35 | -35.90488 | -63.87935 | 24354 ft | 285 kts | 15° |
| 2026-04-25 00:35 | -35.88692 | -63.86940 | 24497 ft | 286 kts | 15° |
| 2026-04-25 00:35 | -35.86868 | -63.85929 | 24646 ft | 287 kts | 15° |
| 2026-04-25 00:35 | -35.85046 | -63.84919 | 24818 ft | 287 kts | 15° |
| 2026-04-25 00:36 | -35.83221 | -63.83909 | 24973 ft | 288 kts | 15° |
| 2026-04-25 00:36 | -35.81372 | -63.82888 | 25033 ft | 292 kts | 15° |
| 2026-04-25 00:36 | -35.79505 | -63.81861 | 25048 ft | 299 kts | 15° |
| 2026-04-25 00:36 | -35.77580 | -63.80800 | 25052 ft | 306 kts | 15° |
| 2026-04-25 00:37 | -35.75604 | -63.79711 | 25052 ft | 313 kts | 16° |
| 2026-04-25 00:37 | -35.73586 | -63.78599 | 25054 ft | 319 kts | 16° |
| 2026-04-25 00:37 | -35.71567 | -63.77485 | 25053 ft | 324 kts | 16° |
| 2026-04-25 00:37 | -35.69474 | -63.76360 | 25046 ft | 327 kts | 13° |
| 2026-04-25 00:38 | -35.67293 | -63.75603 | 25053 ft | 324 kts | 5° |
| 2026-04-25 00:38 | -35.65093 | -63.75017 | 25052 ft | 328 kts | 4° |
| 2026-04-25 00:38 | -35.62852 | -63.74426 | 25046 ft | 332 kts | 4° |
| 2026-04-25 00:38 | -35.60572 | -63.73821 | 25043 ft | 334 kts | 5° |
| 2026-04-25 00:39 | -35.58287 | -63.73212 | 25041 ft | 337 kts | 5° |
| 2026-04-25 00:39 | -35.55986 | -63.72597 | 25040 ft | 338 kts | 5° |
| 2026-04-25 00:39 | -35.53709 | -63.71988 | 25045 ft | 340 kts | 5° |
| 2026-04-25 00:39 | -35.51387 | -63.71365 | 25042 ft | 341 kts | 5° |
| 2026-04-25 00:40 | -35.49065 | -63.70742 | 25038 ft | 342 kts | 5° |
| 2026-04-25 00:40 | -35.46728 | -63.70114 | 25045 ft | 343 kts | 5° |
| 2026-04-25 00:40 | -35.44385 | -63.69485 | 25035 ft | 343 kts | 5° |
| 2026-04-25 00:40 | -35.42078 | -63.68865 | 25037 ft | 344 kts | 5° |
| 2026-04-25 00:41 | -35.39742 | -63.68238 | 25043 ft | 344 kts | 5° |
| 2026-04-25 00:41 | -35.37398 | -63.67610 | 25036 ft | 345 kts | 5° |
| 2026-04-25 00:41 | -35.35051 | -63.66981 | 25033 ft | 345 kts | 5° |
| 2026-04-25 00:41 | -35.32705 | -63.66352 | 25038 ft | 346 kts | 5° |
| 2026-04-25 00:42 | -35.30358 | -63.65723 | 25040 ft | 346 kts | 5° |
| 2026-04-25 00:42 | -35.27974 | -63.65084 | 25039 ft | 346 kts | 5° |
| 2026-04-25 00:42 | -35.25623 | -63.64455 | 25035 ft | 346 kts | 5° |
| 2026-04-25 00:42 | -35.23287 | -63.63831 | 25036 ft | 346 kts | 5° |
| 2026-04-25 00:43 | -35.20932 | -63.63201 | 25039 ft | 347 kts | 5° |
| 2026-04-25 00:43 | -35.18562 | -63.62568 | 25033 ft | 347 kts | 5° |
| 2026-04-25 00:43 | -35.16195 | -63.61936 | 25030 ft | 347 kts | 5° |
| 2026-04-25 00:43 | -35.13861 | -63.61313 | 25035 ft | 347 kts | 5° |
| 2026-04-25 00:44 | -35.11490 | -63.60681 | 25038 ft | 347 kts | 5° |
| 2026-04-25 00:44 | -35.09127 | -63.60052 | 25032 ft | 347 kts | 5° |
| 2026-04-25 00:44 | -35.06792 | -63.59430 | 25031 ft | 347 kts | 5° |
| 2026-04-25 00:44 | -35.04416 | -63.58799 | 25034 ft | 347 kts | 5° |
| 2026-04-25 00:45 | -35.02059 | -63.58171 | 25026 ft | 347 kts | 5° |
| 2026-04-25 00:45 | -34.99689 | -63.57541 | 25032 ft | 347 kts | 5° |
| 2026-04-25 00:45 | -34.97321 | -63.56911 | 25028 ft | 347 kts | 5° |
| 2026-04-25 00:45 | -34.94991 | -63.56293 | 25032 ft | 347 kts | 5° |
| 2026-04-25 00:46 | -34.92631 | -63.55667 | 25032 ft | 347 kts | 5° |
| 2026-04-25 00:46 | -34.90272 | -63.55041 | 25032 ft | 347 kts | 5° |
| 2026-04-25 00:46 | -34.85549 | -63.53796 | 25030 ft | 347 kts | 5° |
| 2026-04-25 00:47 | -34.83190 | -63.53204 | 25032 ft | 346 kts | 4° |
| 2026-04-25 00:47 | -34.80805 | -63.52608 | 25031 ft | 347 kts | 4° |
| 2026-04-25 00:47 | -34.78442 | -63.52018 | 25032 ft | 347 kts | 5° |
| 2026-04-25 00:47 | -34.76076 | -63.51427 | 25029 ft | 345 kts | 4° |
| 2026-04-25 00:48 | -34.73760 | -63.50849 | 25030 ft | 343 kts | 4° |
| 2026-04-25 00:48 | -34.71425 | -63.50266 | 25029 ft | 342 kts | 5° |
| 2026-04-25 00:48 | -34.69087 | -63.49683 | 25031 ft | 341 kts | 4° |
| 2026-04-25 00:48 | -34.66760 | -63.49102 | 25033 ft | 340 kts | 4° |
| 2026-04-25 00:49 | -34.64433 | -63.48521 | 25028 ft | 339 kts | 4° |
| 2026-04-25 00:49 | -34.62143 | -63.47950 | 25029 ft | 338 kts | 4° |
| 2026-04-25 00:49 | -34.59814 | -63.47369 | 25029 ft | 338 kts | 4° |
| 2026-04-25 00:49 | -34.57532 | -63.46801 | 25037 ft | 338 kts | 5° |
| 2026-04-25 00:50 | -34.55215 | -63.46225 | 25029 ft | 338 kts | 4° |
| 2026-04-25 00:50 | -34.52911 | -63.45650 | 25029 ft | 337 kts | 4° |
| 2026-04-25 00:50 | -34.50635 | -63.45085 | 25034 ft | 337 kts | 4° |
| 2026-04-25 00:50 | -34.48337 | -63.44514 | 25032 ft | 337 kts | 4° |
| 2026-04-25 00:51 | -34.46030 | -63.43940 | 25032 ft | 337 kts | 4° |
| 2026-04-25 00:51 | -34.43729 | -63.43368 | 25030 ft | 337 kts | 4° |
| 2026-04-25 00:51 | -34.41420 | -63.42794 | 25028 ft | 337 kts | 4° |
| 2026-04-25 00:51 | -34.39124 | -63.42225 | 25029 ft | 336 kts | 4° |
| 2026-04-25 00:52 | -34.36838 | -63.41658 | 25035 ft | 336 kts | 4° |
| 2026-04-25 00:52 | -34.34542 | -63.41088 | 25036 ft | 336 kts | 4° |
| 2026-04-25 00:52 | -34.32250 | -63.40522 | 25033 ft | 336 kts | 4° |
| 2026-04-25 00:52 | -34.29977 | -63.39959 | 25030 ft | 336 kts | 5° |
| 2026-04-25 00:53 | -34.27682 | -63.39389 | 25033 ft | 335 kts | 4° |
| 2026-04-25 00:53 | -34.25389 | -63.38822 | 25031 ft | 335 kts | 4° |
| 2026-04-25 00:53 | -34.23107 | -63.38259 | 25030 ft | 336 kts | 4° |
| 2026-04-25 00:53 | -34.20834 | -63.37697 | 25032 ft | 336 kts | 4° |
| 2026-04-25 00:54 | -34.18538 | -63.37130 | 25030 ft | 336 kts | 4° |
| 2026-04-25 00:54 | -34.16241 | -63.36563 | 25034 ft | 336 kts | 4° |
| 2026-04-25 00:54 | -34.13941 | -63.36113 | 25017 ft | 330 kts | 356° |
| 2026-04-25 00:54 | -34.11677 | -63.36227 | 25041 ft | 323 kts | 348° |
| 2026-04-25 00:55 | -34.09425 | -63.36461 | 25038 ft | 323 kts | 348° |
| 2026-04-25 00:55 | -34.07196 | -63.36696 | 25036 ft | 323 kts | 348° |
| 2026-04-25 00:55 | -34.04945 | -63.36931 | 25032 ft | 324 kts | 348° |
| 2026-04-25 00:55 | -34.02695 | -63.37163 | 25029 ft | 324 kts | 348° |
| 2026-04-25 00:56 | -34.00444 | -63.37393 | 25032 ft | 324 kts | 348° |
| 2026-04-25 00:56 | -33.98218 | -63.37619 | 25035 ft | 324 kts | 348° |
| 2026-04-25 00:56 | -33.95956 | -63.37847 | 25031 ft | 325 kts | 348° |
| 2026-04-25 00:56 | -33.93702 | -63.38074 | 25026 ft | 325 kts | 348° |
| 2026-04-25 00:57 | -33.91443 | -63.38299 | 25028 ft | 325 kts | 348° |
| 2026-04-25 00:57 | -33.89183 | -63.38525 | 25030 ft | 325 kts | 348° |
| 2026-04-25 00:57 | -33.86954 | -63.38747 | 25037 ft | 325 kts | 348° |
| 2026-04-25 00:57 | -33.84698 | -63.38971 | 25040 ft | 325 kts | 348° |
| 2026-04-25 00:58 | -33.82442 | -63.39195 | 25031 ft | 325 kts | 348° |
| 2026-04-25 00:58 | -33.80182 | -63.39419 | 25029 ft | 325 kts | 348° |
| 2026-04-25 00:58 | -33.77918 | -63.39643 | 25037 ft | 324 kts | 348° |
| 2026-04-25 00:58 | -33.75664 | -63.39867 | 25038 ft | 324 kts | 348° |
| 2026-04-25 00:59 | -33.73439 | -63.40087 | 25034 ft | 325 kts | 348° |
| 2026-04-25 00:59 | -33.71182 | -63.40310 | 25032 ft | 324 kts | 348° |
| 2026-04-25 00:59 | -33.68918 | -63.40534 | 25034 ft | 324 kts | 348° |
| 2026-04-25 00:59 | -33.66660 | -63.40757 | 25035 ft | 324 kts | 348° |
| 2026-04-25 01:00 | -33.64436 | -63.40976 | 25034 ft | 324 kts | 348° |
| 2026-04-25 01:00 | -33.62187 | -63.41198 | 25031 ft | 324 kts | 348° |
| 2026-04-25 01:00 | -33.59931 | -63.41420 | 25033 ft | 324 kts | 348° |
| 2026-04-25 01:00 | -33.57686 | -63.41642 | 25036 ft | 324 kts | 348° |
| 2026-04-25 01:01 | -33.55434 | -63.41864 | 25031 ft | 324 kts | 348° |
| 2026-04-25 01:01 | -33.53181 | -63.42085 | 25036 ft | 324 kts | 348° |
| 2026-04-25 01:01 | -33.50925 | -63.42307 | 25032 ft | 324 kts | 348° |
| 2026-04-25 01:01 | -33.48663 | -63.42529 | 25023 ft | 324 kts | 348° |
| 2026-04-25 01:02 | -33.46443 | -63.42748 | 25037 ft | 324 kts | 348° |
| 2026-04-25 01:02 | -33.44194 | -63.42968 | 25032 ft | 324 kts | 348° |
| 2026-04-25 01:02 | -33.41941 | -63.43190 | 25029 ft | 324 kts | 347° |
| 2026-04-25 01:02 | -33.39689 | -63.43411 | 25030 ft | 324 kts | 347° |
| 2026-04-25 01:03 | -33.37436 | -63.43631 | 25029 ft | 324 kts | 347° |
| 2026-04-25 01:03 | -33.35192 | -63.43851 | 25027 ft | 324 kts | 347° |
| 2026-04-25 01:03 | -33.32940 | -63.44072 | 25030 ft | 324 kts | 347° |
| 2026-04-25 01:03 | -33.30693 | -63.44292 | 25027 ft | 324 kts | 347° |
| 2026-04-25 01:04 | -33.28450 | -63.44511 | 25034 ft | 324 kts | 347° |
| 2026-04-25 01:04 | -33.26201 | -63.44731 | 25039 ft | 324 kts | 347° |
| 2026-04-25 01:04 | -33.23951 | -63.44951 | 25035 ft | 324 kts | 347° |
| 2026-04-25 01:04 | -33.21702 | -63.45171 | 25030 ft | 324 kts | 347° |
| 2026-04-25 01:05 | -33.19462 | -63.45390 | 25028 ft | 323 kts | 347° |
| 2026-04-25 01:05 | -33.17223 | -63.45608 | 25028 ft | 323 kts | 347° |
| 2026-04-25 01:05 | -33.14982 | -63.45826 | 25034 ft | 323 kts | 347° |
| 2026-04-25 01:05 | -33.12733 | -63.46046 | 25035 ft | 323 kts | 347° |
| 2026-04-25 01:06 | -33.10484 | -63.46265 | 25037 ft | 323 kts | 347° |
| 2026-04-25 01:06 | -33.08266 | -63.46481 | 25034 ft | 323 kts | 347° |
| 2026-04-25 01:06 | -33.06012 | -63.46701 | 25036 ft | 323 kts | 347° |
| 2026-04-25 01:06 | -33.03771 | -63.46919 | 25031 ft | 323 kts | 347° |
| 2026-04-25 01:07 | -33.01525 | -63.47137 | 25036 ft | 323 kts | 347° |
| 2026-04-25 01:07 | -32.99281 | -63.47355 | 25038 ft | 323 kts | 347° |
| 2026-04-25 01:07 | -32.97038 | -63.47573 | 25041 ft | 323 kts | 347° |
| 2026-04-25 01:07 | -32.94821 | -63.47788 | 25032 ft | 323 kts | 347° |
| 2026-04-25 01:08 | -32.92581 | -63.48006 | 25029 ft | 323 kts | 347° |
| 2026-04-25 01:08 | -32.90340 | -63.48223 | 25038 ft | 323 kts | 347° |
| 2026-04-25 01:08 | -32.88098 | -63.48441 | 25038 ft | 323 kts | 347° |
| 2026-04-25 01:08 | -32.85852 | -63.48658 | 25035 ft | 323 kts | 347° |
| 2026-04-25 01:09 | -32.83604 | -63.48876 | 25034 ft | 323 kts | 347° |
| 2026-04-25 01:09 | -32.81363 | -63.49093 | 25033 ft | 323 kts | 346° |
| 2026-04-25 01:09 | -32.79116 | -63.49310 | 25035 ft | 323 kts | 346° |
| 2026-04-25 01:09 | -32.76895 | -63.49525 | 25035 ft | 323 kts | 346° |
| 2026-04-25 01:10 | -32.74655 | -63.49741 | 25046 ft | 323 kts | 346° |
| 2026-04-25 01:10 | -32.72407 | -63.49959 | 25041 ft | 323 kts | 346° |
| 2026-04-25 01:10 | -32.70166 | -63.50176 | 25033 ft | 323 kts | 346° |
| 2026-04-25 01:10 | -32.67916 | -63.50392 | 25040 ft | 322 kts | 346° |
| 2026-04-25 01:11 | -32.65684 | -63.50607 | 25054 ft | 322 kts | 346° |
| 2026-04-25 01:11 | -32.63442 | -63.50824 | 25050 ft | 322 kts | 346° |
| 2026-04-25 01:11 | -32.61201 | -63.51040 | 25044 ft | 323 kts | 346° |
| 2026-04-25 01:11 | -32.58950 | -63.51257 | 25037 ft | 323 kts | 346° |
| 2026-04-25 01:12 | -32.56707 | -63.51472 | 25037 ft | 323 kts | 346° |
| 2026-04-25 01:12 | -32.54469 | -63.51688 | 25037 ft | 323 kts | 346° |
| 2026-04-25 01:12 | -32.52226 | -63.51904 | 25042 ft | 323 kts | 346° |
| 2026-04-25 01:12 | -32.49982 | -63.52119 | 25039 ft | 323 kts | 346° |
| 2026-04-25 01:13 | -32.47742 | -63.52335 | 25039 ft | 323 kts | 346° |
| 2026-04-25 01:13 | -32.45499 | -63.52550 | 25041 ft | 323 kts | 346° |
| 2026-04-25 01:13 | -32.43266 | -63.52764 | 25039 ft | 323 kts | 346° |
| 2026-04-25 01:13 | -32.41029 | -63.52979 | 25034 ft | 323 kts | 346° |
| 2026-04-25 01:14 | -32.38789 | -63.53194 | 25036 ft | 322 kts | 346° |
| 2026-04-25 01:14 | -32.36550 | -63.53409 | 25045 ft | 323 kts | 346° |
| 2026-04-25 01:14 | -32.34307 | -63.53624 | 25041 ft | 323 kts | 346° |
| 2026-04-25 01:14 | -32.32062 | -63.53839 | 25038 ft | 323 kts | 346° |
| 2026-04-25 01:15 | -32.29814 | -63.54054 | 25036 ft | 323 kts | 346° |
| 2026-04-25 01:15 | -32.27600 | -63.54266 | 25034 ft | 323 kts | 346° |
| 2026-04-25 01:15 | -32.25335 | -63.54483 | 25042 ft | 323 kts | 346° |
| 2026-04-25 01:15 | -32.23118 | -63.54695 | 25040 ft | 323 kts | 346° |
| 2026-04-25 01:16 | -32.20870 | -63.54910 | 25037 ft | 323 kts | 346° |
| 2026-04-25 01:16 | -32.18629 | -63.55123 | 25042 ft | 322 kts | 346° |
| 2026-04-25 01:16 | -32.16381 | -63.55338 | 25039 ft | 323 kts | 346° |
| 2026-04-25 01:16 | -32.14162 | -63.55550 | 25039 ft | 323 kts | 346° |
| 2026-04-25 01:17 | -32.11912 | -63.55764 | 25037 ft | 323 kts | 346° |
| 2026-04-25 01:17 | -32.09681 | -63.55977 | 25028 ft | 323 kts | 345° |
| 2026-04-25 01:17 | -32.07435 | -63.56191 | 25032 ft | 323 kts | 345° |
| 2026-04-25 01:17 | -32.05187 | -63.56405 | 25042 ft | 322 kts | 345° |
| 2026-04-25 01:18 | -32.02943 | -63.56628 | 25048 ft | 322 kts | 345° |
| 2026-04-25 01:18 | -32.00737 | -63.56856 | 25047 ft | 320 kts | 345° |
| 2026-04-25 01:18 | -31.98506 | -63.57087 | 24855 ft | 319 kts | 345° |
| 2026-04-25 01:18 | -31.96290 | -63.57319 | 24557 ft | 318 kts | 345° |
| 2026-04-25 01:19 | -31.94109 | -63.57546 | 24221 ft | 318 kts | 345° |
| 2026-04-25 01:19 | -31.91896 | -63.57777 | 23876 ft | 318 kts | 345° |
| 2026-04-25 01:19 | -31.89682 | -63.58007 | 23532 ft | 318 kts | 345° |
| 2026-04-25 01:19 | -31.87505 | -63.58232 | 23209 ft | 317 kts | 346° |
| 2026-04-25 01:20 | -31.85308 | -63.58459 | 22879 ft | 316 kts | 346° |
| 2026-04-25 01:20 | -31.83118 | -63.58684 | 22554 ft | 316 kts | 346° |
| 2026-04-25 01:20 | -31.80928 | -63.58909 | 22228 ft | 315 kts | 347° |
| 2026-04-25 01:20 | -31.78750 | -63.59132 | 21896 ft | 310 kts | 347° |
| 2026-04-25 01:21 | -31.76605 | -63.59351 | 21552 ft | 307 kts | 347° |
| 2026-04-25 01:21 | -31.74486 | -63.59568 | 21208 ft | 304 kts | 347° |
| 2026-04-25 01:21 | -31.72391 | -63.59784 | 20854 ft | 302 kts | 347° |
| 2026-04-25 01:21 | -31.70295 | -63.59996 | 20491 ft | 301 kts | 347° |
| 2026-04-25 01:22 | -31.68229 | -63.60195 | 20140 ft | 300 kts | 348° |
| 2026-04-25 01:22 | -31.66151 | -63.60393 | 19788 ft | 298 kts | 347° |
| 2026-04-25 01:22 | -31.64096 | -63.60606 | 19429 ft | 295 kts | 347° |
| 2026-04-25 01:22 | -31.62066 | -63.60821 | 19064 ft | 289 kts | 348° |
| 2026-04-25 01:23 | -31.60073 | -63.61030 | 18670 ft | 284 kts | 347° |
| 2026-04-25 01:23 | -31.58142 | -63.61231 | 18270 ft | 279 kts | 348° |
| 2026-04-25 01:23 | -31.56212 | -63.61428 | 17857 ft | 276 kts | 348° |
| 2026-04-25 01:23 | -31.54308 | -63.61627 | 17439 ft | 272 kts | 348° |
| 2026-04-25 01:24 | -31.52434 | -63.61821 | 17004 ft | 267 kts | 348° |
| 2026-04-25 01:24 | -31.50623 | -63.62019 | 16554 ft | 262 kts | 348° |
| 2026-04-25 01:24 | -31.48821 | -63.62221 | 16085 ft | 257 kts | 347° |
| 2026-04-25 01:24 | -31.47161 | -63.62730 | 15546 ft | 241 kts | 323° |
| 2026-04-25 01:25 | -31.46134 | -63.64133 | 14973 ft | 225 kts | 291° |
| 2026-04-25 01:25 | -31.45553 | -63.65808 | 14465 ft | 222 kts | 290° |
| 2026-04-25 01:25 | -31.44927 | -63.67443 | 13942 ft | 221 kts | 293° |
| 2026-04-25 01:25 | -31.44231 | -63.69038 | 13422 ft | 220 kts | 295° |
| 2026-04-25 01:26 | -31.43493 | -63.70600 | 12891 ft | 219 kts | 294° |
| 2026-04-25 01:26 | -31.43135 | -63.72263 | 12333 ft | 215 kts | 270° |
| 2026-04-25 01:26 | -31.43191 | -63.73994 | 11807 ft | 214 kts | 266° |
| 2026-04-25 01:26 | -31.43260 | -63.75741 | 11282 ft | 214 kts | 267° |
| 2026-04-25 01:27 | -31.43314 | -63.77475 | 10750 ft | 214 kts | 268° |
| 2026-04-25 01:27 | -31.43356 | -63.79210 | 10228 ft | 214 kts | 268° |
| 2026-04-25 01:27 | -31.43388 | -63.80933 | 9709 ft | 214 kts | 269° |
| 2026-04-25 01:28 | -31.43430 | -63.84404 | 8687 ft | 214 kts | 269° |
| 2026-04-25 01:28 | -31.43445 | -63.86149 | 8179 ft | 213 kts | 270° |
| 2026-04-25 01:28 | -31.43457 | -63.87884 | 7679 ft | 213 kts | 270° |
| 2026-04-25 01:28 | -31.43465 | -63.89595 | 7189 ft | 213 kts | 270° |
| 2026-04-25 01:29 | -31.43473 | -63.91331 | 6704 ft | 213 kts | 270° |
| 2026-04-25 01:29 | -31.43481 | -63.93010 | 6449 ft | 196 kts | 270° |
| 2026-04-25 01:29 | -31.43487 | -63.94507 | 6335 ft | 174 kts | 270° |
| 2026-04-25 01:29 | -31.43488 | -63.95899 | 6102 ft | 168 kts | 271° |
| 2026-04-25 01:30 | -31.43487 | -63.97240 | 5789 ft | 166 kts | 271° |
| 2026-04-25 01:30 | -31.43488 | -63.98577 | 5475 ft | 163 kts | 271° |
| 2026-04-25 01:30 | -31.43490 | -63.99896 | 5135 ft | 162 kts | 272° |
| 2026-04-25 01:30 | -31.43491 | -64.01198 | 4839 ft | 156 kts | 272° |
| 2026-04-25 01:31 | -31.43491 | -64.02437 | 4481 ft | 153 kts | 273° |
| 2026-04-25 01:31 | -31.43489 | -64.03701 | 4016 ft | 156 kts | 272° |
| 2026-04-25 01:31 | -31.43485 | -64.04928 | 3657 ft | 151 kts | 275° |
| 2026-04-25 01:31 | -31.43479 | -64.06164 | 3235 ft | 153 kts | 275° |
| 2026-04-25 01:32 | -31.43589 | -64.07398 | 2815 ft | 156 kts | 253° |
| 2026-04-25 01:32 | -31.43822 | -64.08594 | 2456 ft | 149 kts | 271° |
| 2026-04-25 01:32 | -31.43819 | -64.09786 | 2132 ft | 144 kts | 275° |
| 2026-04-25 01:32 | -31.43778 | -64.10956 | 1986 ft | 143 kts | 276° |
| 2026-04-25 01:33 | -31.43724 | -64.12106 | 2248 ft | 133 kts | 275° |
| 2026-04-25 01:33 | -31.43536 | -64.13154 | 2540 ft | 136 kts | 289° |
| 2026-04-25 01:33 | -31.43310 | -64.14239 | 2763 ft | 139 kts | 293° |
| 2026-04-25 01:33 | -31.43014 | -64.15363 | 2812 ft | 148 kts | 286° |
| 2026-04-25 01:34 | -31.42665 | -64.16503 | 2802 ft | 148 kts | 303° |
| 2026-04-25 01:34 | -31.42066 | -64.17455 | 2660 ft | 146 kts | 315° |
| 2026-04-25 01:34 | -31.41347 | -64.18303 | 2507 ft | 145 kts | 324° |
| 2026-04-25 01:34 | -31.40540 | -64.18931 | 2425 ft | 136 kts | 332° |
| 2026-04-25 01:35 | -31.39721 | -64.19476 | 2302 ft | 135 kts | 337° |
| 2026-04-25 01:35 | -31.38862 | -64.19937 | 2255 ft | 134 kts | 339° |
| 2026-04-25 01:35 | -31.37978 | -64.20347 | 2232 ft | 139 kts | 338° |
| 2026-04-25 01:35 | -31.37057 | -64.20691 | 2140 ft | 138 kts | 352° |
| 2026-04-25 01:36 | -31.36099 | -64.20802 | 2038 ft | 137 kts | 2° |
| 2026-04-25 01:36 | -31.35168 | -64.20735 | 2006 ft | 129 kts | 356° |
| 2026-04-25 01:36 | -31.34309 | -64.20792 | 1869 ft | 121 kts | 355° |
| 2026-04-25 01:36 | -31.33465 | -64.20798 | 1727 ft | 119 kts | 354° |
| 2026-04-25 01:37 | -31.32634 | -64.20815 | 1598 ft | 118 kts | 352° |
| 2026-04-25 01:37 | -31.31858 | -64.20827 | 1552 ft | 94 kts | 358° |
| 2026-04-25 01:37 | -31.31350 | -64.20821 | 1562 ft | 51 kts | 0° |
| 2026-04-25 01:37 | -31.31134 | -64.20818 | 1568 ft | 6 kts | 4° |
| 2026-04-25 01:38 | -31.31135 | -64.20830 | 1568 ft | 3 kts | 184° |
| 2026-04-25 01:38 | -31.31175 | -64.20831 | 1566 ft | 7 kts | 179° |
| 2026-04-25 01:38 | -31.31233 | -64.20830 | 1565 ft | 9 kts | 180° |
| 2026-04-25 01:38 | -31.31302 | -64.20830 | 1564 ft | 10 kts | 179° |
| 2026-04-25 01:39 | -31.31377 | -64.20830 | 1562 ft | 11 kts | 180° |
| 2026-04-25 01:39 | -31.31442 | -64.20857 | 1562 ft | 9 kts | 229° |
| 2026-04-25 01:39 | -31.31463 | -64.20913 | 1564 ft | 5 kts | 262° |
| 2026-04-25 01:39 | -31.31467 | -64.20949 | 1565 ft | 2 kts | 264° |
| 2026-04-25 01:40 | -31.31467 | -64.20959 | 1565 ft | 0 kts | 268° |
| 2026-04-25 01:40 | -31.31467 | -64.20963 | 1565 ft | 1 kts | 268° |
| 2026-04-25 01:40 | -31.31467 | -64.20996 | 1567 ft | 6 kts | 275° |
| 2026-04-25 01:40 | -31.31467 | -64.21056 | 1568 ft | 7 kts | 265° |
| 2026-04-25 01:41 | -31.31473 | -64.21111 | 1569 ft | 5 kts | 262° |
| 2026-04-25 01:41 | -31.31478 | -64.21152 | 1570 ft | 4 kts | 262° |
| 2026-04-25 01:41 | -31.31480 | -64.21169 | 1570 ft | 0 kts | 262° |
| 2026-04-25 01:42 | -31.31480 | -64.21170 | 1570 ft | 0 kts | 262° |
| 2026-04-25 01:42 | -31.31481 | -64.21178 | 1570 ft | 1 kts | 262° |